sensor_id;sensor_type;location;lat;lon;timestamp;temperature;humidity
47616;DHT22;69146;52.266;7.000;2023-12-20T00:00:36;5.80;99.90
47616;DHT22;69146;52.266;7.000;2023-12-20T00:03:21;5.70;99.90
47616;DHT22;69146;52.266;7.000;2023-12-20T00:06:06;5.70;99.90
47616;DHT22;69146;52.266;7.000;2023-12-20T00:08:50;5.70;99.90
47616;DHT22;69146;52.266;7.000;2023-12-20T00:11:36;5.70;99.90
47616;DHT22;69146;52.266;7.000;2023-12-20T00:14:20;5.70;99.90
47616;DHT22;69146;52.266;7.000;2023-12-20T00:17:05;5.70;99.90
47616;DHT22;69146;52.266;7.000;2023-12-20T00:19:49;5.70;99.90
47616;DHT22;69146;52.266;7.000;2023-12-20T00:22:34;5.60;99.90
47616;DHT22;69146;52.266;7.000;2023-12-20T00:25:18;5.60;99.90
47616;DHT22;69146;52.266;7.000;2023-12-20T00:28:04;5.60;99.90
47616;DHT22;69146;52.266;7.000;2023-12-20T00:30:49;5.60;99.90
47616;DHT22;69146;52.266;7.000;2023-12-20T00:33:34;5.60;99.90
47616;DHT22;69146;52.266;7.000;2023-12-20T00:36:18;5.50;99.90
47616;DHT22;69146;52.266;7.000;2023-12-20T00:39:03;5.60;99.90
47616;DHT22;69146;52.266;7.000;2023-12-20T00:41:47;5.60;99.90
47616;DHT22;69146;52.266;7.000;2023-12-20T00:44:33;5.60;99.90
47616;DHT22;69146;52.266;7.000;2023-12-20T00:47:17;5.60;99.90
47616;DHT22;69146;52.266;7.000;2023-12-20T00:50:02;5.60;99.90
47616;DHT22;69146;52.266;7.000;2023-12-20T00:52:50;5.60;99.90
47616;DHT22;69146;52.266;7.000;2023-12-20T00:55:35;5.60;99.90
47616;DHT22;69146;52.266;7.000;2023-12-20T00:58:19;5.60;99.90
47616;DHT22;69146;52.266;7.000;2023-12-20T01:01:05;5.70;99.90
47616;DHT22;69146;52.266;7.000;2023-12-20T01:03:49;5.60;99.90
47616;DHT22;69146;52.266;7.000;2023-12-20T01:06:35;5.60;99.90
47616;DHT22;69146;52.266;7.000;2023-12-20T01:09:20;5.50;99.90
47616;DHT22;69146;52.266;7.000;2023-12-20T01:12:07;5.40;99.90
47616;DHT22;69146;52.266;7.000;2023-12-20T01:14:52;5.40;99.90
47616;DHT22;69146;52.266;7.000;2023-12-20T01:17:38;5.40;99.90
47616;DHT22;69146;52.266;7.000;2023-12-20T01:20:22;5.30;99.90
47616;DHT22;69146;52.266;7.000;2023-12-20T01:23:06;5.30;99.90
47616;DHT22;69146;52.266;7.000;2023-12-20T01:25:51;5.30;99.90
47616;DHT22;69146;52.266;7.000;2023-12-20T01:28:36;5.20;99.90
47616;DHT22;69146;52.266;7.000;2023-12-20T01:31:20;5.20;99.90
47616;DHT22;69146;52.266;7.000;2023-12-20T01:34:06;5.10;99.90
47616;DHT22;69146;52.266;7.000;2023-12-20T01:36:50;5.10;99.90
47616;DHT22;69146;52.266;7.000;2023-12-20T01:39:35;5.00;99.90
47616;DHT22;69146;52.266;7.000;2023-12-20T01:42:19;5.10;99.90
47616;DHT22;69146;52.266;7.000;2023-12-20T01:45:04;5.00;99.90
47616;DHT22;69146;52.266;7.000;2023-12-20T01:47:49;5.00;99.90
47616;DHT22;69146;52.266;7.000;2023-12-20T01:50:34;5.00;99.90
47616;DHT22;69146;52.266;7.000;2023-12-20T01:53:20;5.00;99.90
47616;DHT22;69146;52.266;7.000;2023-12-20T01:56:05;5.00;99.90
47616;DHT22;69146;52.266;7.000;2023-12-20T01:58:50;4.90;99.90
47616;DHT22;69146;52.266;7.000;2023-12-20T02:01:35;5.00;99.90
47616;DHT22;69146;52.266;7.000;2023-12-20T02:04:19;5.00;99.90
47616;DHT22;69146;52.266;7.000;2023-12-20T02:07:05;5.00;99.90
47616;DHT22;69146;52.266;7.000;2023-12-20T02:09:51;5.00;99.90
47616;DHT22;69146;52.266;7.000;2023-12-20T02:12:36;5.00;99.90
47616;DHT22;69146;52.266;7.000;2023-12-20T02:15:20;4.90;99.90
47616;DHT22;69146;52.266;7.000;2023-12-20T02:18:05;4.90;99.90
47616;DHT22;69146;52.266;7.000;2023-12-20T02:20:49;5.00;99.90
47616;DHT22;69146;52.266;7.000;2023-12-20T02:23:35;5.00;99.90
47616;DHT22;69146;52.266;7.000;2023-12-20T02:26:20;5.00;99.90
47616;DHT22;69146;52.266;7.000;2023-12-20T02:29:06;5.00;99.90
47616;DHT22;69146;52.266;7.000;2023-12-20T02:31:50;5.00;99.90
47616;DHT22;69146;52.266;7.000;2023-12-20T02:34:35;5.00;99.90
47616;DHT22;69146;52.266;7.000;2023-12-20T02:37:19;5.00;99.90
47616;DHT22;69146;52.266;7.000;2023-12-20T02:40:06;4.90;99.90
47616;DHT22;69146;52.266;7.000;2023-12-20T02:42:51;4.90;99.90
47616;DHT22;69146;52.266;7.000;2023-12-20T02:45:35;4.80;99.90
47616;DHT22;69146;52.266;7.000;2023-12-20T02:48:19;4.90;99.90
47616;DHT22;69146;52.266;7.000;2023-12-20T02:51:04;4.90;99.90
47616;DHT22;69146;52.266;7.000;2023-12-20T02:53:48;4.90;99.90
47616;DHT22;69146;52.266;7.000;2023-12-20T02:56:34;4.90;99.90
47616;DHT22;69146;52.266;7.000;2023-12-20T02:59:19;4.90;99.90
47616;DHT22;69146;52.266;7.000;2023-12-20T03:02:03;4.80;99.90
47616;DHT22;69146;52.266;7.000;2023-12-20T03:04:48;4.90;99.90
47616;DHT22;69146;52.266;7.000;2023-12-20T03:07:32;4.90;99.90
47616;DHT22;69146;52.266;7.000;2023-12-20T03:10:16;4.90;99.90
47616;DHT22;69146;52.266;7.000;2023-12-20T03:13:02;4.90;99.90
47616;DHT22;69146;52.266;7.000;2023-12-20T03:15:46;4.90;99.90
47616;DHT22;69146;52.266;7.000;2023-12-20T03:18:31;4.80;99.90
47616;DHT22;69146;52.266;7.000;2023-12-20T03:21:16;4.90;99.90
47616;DHT22;69146;52.266;7.000;2023-12-20T03:24:00;4.90;99.90
47616;DHT22;69146;52.266;7.000;2023-12-20T03:26:45;4.90;99.90
47616;DHT22;69146;52.266;7.000;2023-12-20T03:29:32;5.00;99.90
47616;DHT22;69146;52.266;7.000;2023-12-20T03:32:17;5.00;99.90
47616;DHT22;69146;52.266;7.000;2023-12-20T03:35:02;5.00;99.90
47616;DHT22;69146;52.266;7.000;2023-12-20T03:37:46;5.10;99.90
47616;DHT22;69146;52.266;7.000;2023-12-20T03:40:30;5.10;99.90
47616;DHT22;69146;52.266;7.000;2023-12-20T03:43:15;5.10;99.90
47616;DHT22;69146;52.266;7.000;2023-12-20T03:46:01;5.10;99.90
47616;DHT22;69146;52.266;7.000;2023-12-20T03:48:47;5.10;99.90
47616;DHT22;69146;52.266;7.000;2023-12-20T03:51:32;5.10;99.90
47616;DHT22;69146;52.266;7.000;2023-12-20T03:54:16;5.20;99.90
47616;DHT22;69146;52.266;7.000;2023-12-20T03:57:01;5.10;99.90
47616;DHT22;69146;52.266;7.000;2023-12-20T03:59:45;5.10;99.90
47616;DHT22;69146;52.266;7.000;2023-12-20T04:02:32;5.10;99.90
47616;DHT22;69146;52.266;7.000;2023-12-20T04:05:17;5.20;99.90
47616;DHT22;69146;52.266;7.000;2023-12-20T04:08:01;5.20;99.90
47616;DHT22;69146;52.266;7.000;2023-12-20T04:10:46;5.20;99.90
47616;DHT22;69146;52.266;7.000;2023-12-20T04:13:30;5.20;99.90
47616;DHT22;69146;52.266;7.000;2023-12-20T04:16:15;5.30;99.90
47616;DHT22;69146;52.266;7.000;2023-12-20T04:19:01;5.30;99.90
47616;DHT22;69146;52.266;7.000;2023-12-20T04:21:46;5.30;99.90
47616;DHT22;69146;52.266;7.000;2023-12-20T04:24:31;5.40;99.90
47616;DHT22;69146;52.266;7.000;2023-12-20T04:27:16;5.40;99.90
47616;DHT22;69146;52.266;7.000;2023-12-20T04:30:00;5.40;99.90
47616;DHT22;69146;52.266;7.000;2023-12-20T04:32:44;5.40;99.90
47616;DHT22;69146;52.266;7.000;2023-12-20T04:35:30;5.40;99.90
47616;DHT22;69146;52.266;7.000;2023-12-20T04:38:15;5.40;99.90
47616;DHT22;69146;52.266;7.000;2023-12-20T04:41:03;5.40;99.90
47616;DHT22;69146;52.266;7.000;2023-12-20T04:43:47;5.40;99.90
47616;DHT22;69146;52.266;7.000;2023-12-20T04:46:32;5.40;99.90
47616;DHT22;69146;52.266;7.000;2023-12-20T04:49:16;5.40;99.90
47616;DHT22;69146;52.266;7.000;2023-12-20T04:52:02;5.40;99.90
47616;DHT22;69146;52.266;7.000;2023-12-20T04:54:46;5.40;99.90
47616;DHT22;69146;52.266;7.000;2023-12-20T04:57:31;5.40;99.90
47616;DHT22;69146;52.266;7.000;2023-12-20T05:00:17;5.50;99.90
47616;DHT22;69146;52.266;7.000;2023-12-20T05:03:02;5.40;99.90
47616;DHT22;69146;52.266;7.000;2023-12-20T05:05:46;5.50;99.90
47616;DHT22;69146;52.266;7.000;2023-12-20T05:08:32;5.40;99.90
47616;DHT22;69146;52.266;7.000;2023-12-20T05:11:16;5.40;99.90
47616;DHT22;69146;52.266;7.000;2023-12-20T05:14:00;5.40;99.90
47616;DHT22;69146;52.266;7.000;2023-12-20T05:16:45;5.40;99.90
47616;DHT22;69146;52.266;7.000;2023-12-20T05:19:30;5.40;99.90
47616;DHT22;69146;52.266;7.000;2023-12-20T05:22:14;5.40;99.90
47616;DHT22;69146;52.266;7.000;2023-12-20T05:25:00;5.40;99.90
47616;DHT22;69146;52.266;7.000;2023-12-20T05:27:44;5.50;99.90
47616;DHT22;69146;52.266;7.000;2023-12-20T05:30:29;5.50;99.90
47616;DHT22;69146;52.266;7.000;2023-12-20T05:33:13;5.50;99.90
47616;DHT22;69146;52.266;7.000;2023-12-20T05:35:58;5.50;99.90
47616;DHT22;69146;52.266;7.000;2023-12-20T05:38:43;5.50;99.90
47616;DHT22;69146;52.266;7.000;2023-12-20T05:41:29;5.60;99.90
47616;DHT22;69146;52.266;7.000;2023-12-20T05:44:14;5.60;99.90
47616;DHT22;69146;52.266;7.000;2023-12-20T05:46:58;5.60;99.90
47616;DHT22;69146;52.266;7.000;2023-12-20T05:49:43;5.50;99.90
47616;DHT22;69146;52.266;7.000;2023-12-20T05:52:28;5.50;99.90
47616;DHT22;69146;52.266;7.000;2023-12-20T05:55:12;5.50;99.90
47616;DHT22;69146;52.266;7.000;2023-12-20T05:57:58;5.50;99.90
47616;DHT22;69146;52.266;7.000;2023-12-20T06:00:43;5.60;99.90
47616;DHT22;69146;52.266;7.000;2023-12-20T06:03:27;5.70;99.90
47616;DHT22;69146;52.266;7.000;2023-12-20T06:06:13;5.70;99.90
47616;DHT22;69146;52.266;7.000;2023-12-20T06:08:58;5.70;99.90
47616;DHT22;69146;52.266;7.000;2023-12-20T06:11:43;5.60;99.90
47616;DHT22;69146;52.266;7.000;2023-12-20T06:14:29;5.60;99.90
47616;DHT22;69146;52.266;7.000;2023-12-20T06:17:15;5.70;99.90
47616;DHT22;69146;52.266;7.000;2023-12-20T06:20:00;5.70;99.90
47616;DHT22;69146;52.266;7.000;2023-12-20T06:22:44;5.70;99.90
47616;DHT22;69146;52.266;7.000;2023-12-20T06:25:29;5.70;99.90
47616;DHT22;69146;52.266;7.000;2023-12-20T06:28:14;5.70;99.90
47616;DHT22;69146;52.266;7.000;2023-12-20T06:31:00;5.70;99.90
47616;DHT22;69146;52.266;7.000;2023-12-20T06:33:44;5.70;99.90
47616;DHT22;69146;52.266;7.000;2023-12-20T06:36:32;5.80;99.90
47616;DHT22;69146;52.266;7.000;2023-12-20T06:42:04;5.70;99.90
47616;DHT22;69146;52.266;7.000;2023-12-20T06:44:49;5.80;99.90
47616;DHT22;69146;52.266;7.000;2023-12-20T06:47:35;5.70;99.90
47616;DHT22;69146;52.266;7.000;2023-12-20T06:50:19;5.70;99.90
47616;DHT22;69146;52.266;7.000;2023-12-20T06:53:04;5.80;99.90
47616;DHT22;69146;52.266;7.000;2023-12-20T06:55:50;5.80;99.90
47616;DHT22;69146;52.266;7.000;2023-12-20T06:58:35;5.80;99.90
47616;DHT22;69146;52.266;7.000;2023-12-20T07:01:20;5.90;99.90
47616;DHT22;69146;52.266;7.000;2023-12-20T07:04:06;5.90;99.90
47616;DHT22;69146;52.266;7.000;2023-12-20T07:06:51;5.90;99.90
47616;DHT22;69146;52.266;7.000;2023-12-20T07:09:41;5.90;99.90
47616;DHT22;69146;52.266;7.000;2023-12-20T07:12:27;5.90;99.90
47616;DHT22;69146;52.266;7.000;2023-12-20T07:15:11;5.90;99.90
47616;DHT22;69146;52.266;7.000;2023-12-20T07:17:56;5.90;99.90
47616;DHT22;69146;52.266;7.000;2023-12-20T07:20:42;6.00;99.90
47616;DHT22;69146;52.266;7.000;2023-12-20T07:23:27;6.00;99.90
47616;DHT22;69146;52.266;7.000;2023-12-20T07:26:11;6.00;99.90
47616;DHT22;69146;52.266;7.000;2023-12-20T07:28:55;6.00;99.90
47616;DHT22;69146;52.266;7.000;2023-12-20T07:31:42;6.00;99.90
47616;DHT22;69146;52.266;7.000;2023-12-20T07:34:26;6.10;99.90
47616;DHT22;69146;52.266;7.000;2023-12-20T07:37:12;6.00;99.90
47616;DHT22;69146;52.266;7.000;2023-12-20T07:39:57;6.10;99.90
47616;DHT22;69146;52.266;7.000;2023-12-20T07:42:42;6.10;99.90
47616;DHT22;69146;52.266;7.000;2023-12-20T07:45:26;6.10;99.90
47616;DHT22;69146;52.266;7.000;2023-12-20T07:48:10;6.10;99.90
47616;DHT22;69146;52.266;7.000;2023-12-20T07:50:55;6.10;99.90
47616;DHT22;69146;52.266;7.000;2023-12-20T07:53:41;6.10;99.90
47616;DHT22;69146;52.266;7.000;2023-12-20T07:56:25;6.10;99.90
47616;DHT22;69146;52.266;7.000;2023-12-20T07:59:09;6.20;99.90
47616;DHT22;69146;52.266;7.000;2023-12-20T08:01:54;6.20;99.90
47616;DHT22;69146;52.266;7.000;2023-12-20T08:04:38;6.10;99.90
47616;DHT22;69146;52.266;7.000;2023-12-20T08:07:23;6.20;99.90
47616;DHT22;69146;52.266;7.000;2023-12-20T08:10:18;6.20;99.90
47616;DHT22;69146;52.266;7.000;2023-12-20T08:13:03;6.20;99.90
47616;DHT22;69146;52.266;7.000;2023-12-20T08:15:48;6.20;99.90
47616;DHT22;69146;52.266;7.000;2023-12-20T08:18:33;6.20;99.90
47616;DHT22;69146;52.266;7.000;2023-12-20T08:21:18;6.30;99.90
47616;DHT22;69146;52.266;7.000;2023-12-20T08:24:04;6.40;99.90
47616;DHT22;69146;52.266;7.000;2023-12-20T08:26:50;6.40;99.90
47616;DHT22;69146;52.266;7.000;2023-12-20T08:29:34;6.40;99.90
47616;DHT22;69146;52.266;7.000;2023-12-20T08:32:19;6.40;99.90
47616;DHT22;69146;52.266;7.000;2023-12-20T08:35:04;6.40;99.90
47616;DHT22;69146;52.266;7.000;2023-12-20T08:37:48;6.40;99.90
47616;DHT22;69146;52.266;7.000;2023-12-20T08:40:33;6.40;99.90
47616;DHT22;69146;52.266;7.000;2023-12-20T08:43:19;6.50;99.90
47616;DHT22;69146;52.266;7.000;2023-12-20T08:46:03;6.50;99.90
47616;DHT22;69146;52.266;7.000;2023-12-20T08:48:48;6.50;99.90
47616;DHT22;69146;52.266;7.000;2023-12-20T08:51:32;6.40;99.90
47616;DHT22;69146;52.266;7.000;2023-12-20T08:54:17;6.40;99.90
47616;DHT22;69146;52.266;7.000;2023-12-20T08:57:04;6.40;99.90
47616;DHT22;69146;52.266;7.000;2023-12-20T08:59:52;6.40;99.90
47616;DHT22;69146;52.266;7.000;2023-12-20T09:02:36;6.30;99.90
47616;DHT22;69146;52.266;7.000;2023-12-20T09:05:22;6.30;99.90
47616;DHT22;69146;52.266;7.000;2023-12-20T09:08:06;6.30;99.90
47616;DHT22;69146;52.266;7.000;2023-12-20T09:10:54;6.30;99.90
47616;DHT22;69146;52.266;7.000;2023-12-20T09:13:39;6.30;99.90
47616;DHT22;69146;52.266;7.000;2023-12-20T09:16:24;6.30;99.90
47616;DHT22;69146;52.266;7.000;2023-12-20T09:19:09;6.30;99.90
47616;DHT22;69146;52.266;7.000;2023-12-20T09:21:53;6.30;99.90
47616;DHT22;69146;52.266;7.000;2023-12-20T09:24:38;6.30;99.90
47616;DHT22;69146;52.266;7.000;2023-12-20T09:27:23;6.20;99.90
47616;DHT22;69146;52.266;7.000;2023-12-20T09:30:07;6.20;99.90
47616;DHT22;69146;52.266;7.000;2023-12-20T09:32:53;6.20;99.90
47616;DHT22;69146;52.266;7.000;2023-12-20T09:35:38;6.20;99.90
47616;DHT22;69146;52.266;7.000;2023-12-20T09:38:22;6.20;99.90
47616;DHT22;69146;52.266;7.000;2023-12-20T09:41:07;6.20;99.90
47616;DHT22;69146;52.266;7.000;2023-12-20T09:43:51;6.20;99.90
47616;DHT22;69146;52.266;7.000;2023-12-20T09:46:36;6.20;99.90
47616;DHT22;69146;52.266;7.000;2023-12-20T09:49:25;6.20;99.90
47616;DHT22;69146;52.266;7.000;2023-12-20T09:52:11;6.20;99.90
47616;DHT22;69146;52.266;7.000;2023-12-20T09:54:57;6.20;99.90
47616;DHT22;69146;52.266;7.000;2023-12-20T09:57:42;6.30;99.90
47616;DHT22;69146;52.266;7.000;2023-12-20T10:00:26;6.30;99.90
47616;DHT22;69146;52.266;7.000;2023-12-20T10:03:10;6.30;99.90
47616;DHT22;69146;52.266;7.000;2023-12-20T10:05:57;6.30;99.90
47616;DHT22;69146;52.266;7.000;2023-12-20T10:08:42;6.30;99.90
47616;DHT22;69146;52.266;7.000;2023-12-20T10:11:27;6.30;99.90
47616;DHT22;69146;52.266;7.000;2023-12-20T10:14:12;6.30;99.90
47616;DHT22;69146;52.266;7.000;2023-12-20T10:17:01;6.40;99.90
47616;DHT22;69146;52.266;7.000;2023-12-20T10:19:46;6.40;99.90
47616;DHT22;69146;52.266;7.000;2023-12-20T10:22:31;6.50;99.90
47616;DHT22;69146;52.266;7.000;2023-12-20T10:25:16;6.40;99.90
47616;DHT22;69146;52.266;7.000;2023-12-20T10:28:10;6.40;99.90
47616;DHT22;69146;52.266;7.000;2023-12-20T10:30:55;6.50;99.90
47616;DHT22;69146;52.266;7.000;2023-12-20T10:33:40;6.50;99.90
47616;DHT22;69146;52.266;7.000;2023-12-20T10:36:25;6.50;99.90
47616;DHT22;69146;52.266;7.000;2023-12-20T10:39:12;6.50;99.90
47616;DHT22;69146;52.266;7.000;2023-12-20T10:41:59;6.50;99.90
47616;DHT22;69146;52.266;7.000;2023-12-20T10:44:43;6.60;99.90
47616;DHT22;69146;52.266;7.000;2023-12-20T10:47:28;6.80;99.90
47616;DHT22;69146;52.266;7.000;2023-12-20T10:50:14;7.00;99.90
47616;DHT22;69146;52.266;7.000;2023-12-20T10:52:58;7.10;99.90
47616;DHT22;69146;52.266;7.000;2023-12-20T10:55:44;7.20;99.90
47616;DHT22;69146;52.266;7.000;2023-12-20T10:58:29;7.30;99.90
47616;DHT22;69146;52.266;7.000;2023-12-20T11:01:17;7.30;99.90
47616;DHT22;69146;52.266;7.000;2023-12-20T11:04:02;7.40;99.90
47616;DHT22;69146;52.266;7.000;2023-12-20T11:06:51;7.40;99.90
47616;DHT22;69146;52.266;7.000;2023-12-20T11:09:38;7.40;99.90
47616;DHT22;69146;52.266;7.000;2023-12-20T11:12:28;7.40;99.90
47616;DHT22;69146;52.266;7.000;2023-12-20T11:15:16;7.40;99.90
47616;DHT22;69146;52.266;7.000;2023-12-20T11:18:00;7.40;99.90
47616;DHT22;69146;52.266;7.000;2023-12-20T11:20:45;7.40;99.90
47616;DHT22;69146;52.266;7.000;2023-12-20T11:23:30;7.40;99.90
47616;DHT22;69146;52.266;7.000;2023-12-20T11:26:15;7.30;99.90
47616;DHT22;69146;52.266;7.000;2023-12-20T11:32:01;7.20;99.90
47616;DHT22;69146;52.266;7.000;2023-12-20T11:34:45;7.20;99.90
47616;DHT22;69146;52.266;7.000;2023-12-20T11:37:30;7.10;99.90
47616;DHT22;69146;52.266;7.000;2023-12-20T11:40:16;7.10;99.90
47616;DHT22;69146;52.266;7.000;2023-12-20T11:43:01;7.00;99.90
47616;DHT22;69146;52.266;7.000;2023-12-20T11:45:49;7.10;99.90
47616;DHT22;69146;52.266;7.000;2023-12-20T11:48:36;7.00;99.90
47616;DHT22;69146;52.266;7.000;2023-12-20T11:51:23;7.00;99.90
47616;DHT22;69146;52.266;7.000;2023-12-20T11:54:08;7.00;99.90
47616;DHT22;69146;52.266;7.000;2023-12-20T11:56:53;6.90;99.90
47616;DHT22;69146;52.266;7.000;2023-12-20T11:59:38;6.20;99.90
47616;DHT22;69146;52.266;7.000;2023-12-20T12:02:22;5.70;99.90
47616;DHT22;69146;52.266;7.000;2023-12-20T12:05:09;5.40;99.90
47616;DHT22;69146;52.266;7.000;2023-12-20T12:07:54;5.30;99.90
47616;DHT22;69146;52.266;7.000;2023-12-20T12:10:38;5.30;99.90
47616;DHT22;69146;52.266;7.000;2023-12-20T12:13:22;5.40;99.90
47616;DHT22;69146;52.266;7.000;2023-12-20T12:16:07;5.40;99.90
47616;DHT22;69146;52.266;7.000;2023-12-20T12:18:55;5.50;99.90
47616;DHT22;69146;52.266;7.000;2023-12-20T12:21:40;5.50;99.90
47616;DHT22;69146;52.266;7.000;2023-12-20T12:24:25;5.60;99.90
47616;DHT22;69146;52.266;7.000;2023-12-20T12:27:10;5.70;99.90
47616;DHT22;69146;52.266;7.000;2023-12-20T12:30:02;5.80;99.90
47616;DHT22;69146;52.266;7.000;2023-12-20T12:32:47;5.80;99.90
47616;DHT22;69146;52.266;7.000;2023-12-20T12:35:32;5.80;99.90
47616;DHT22;69146;52.266;7.000;2023-12-20T12:38:19;5.90;99.90
47616;DHT22;69146;52.266;7.000;2023-12-20T12:41:04;5.90;99.90
47616;DHT22;69146;52.266;7.000;2023-12-20T12:43:49;6.00;99.90
47616;DHT22;69146;52.266;7.000;2023-12-20T12:46:34;6.00;99.90
47616;DHT22;69146;52.266;7.000;2023-12-20T12:49:18;6.00;99.90
47616;DHT22;69146;52.266;7.000;2023-12-20T12:52:03;6.00;99.90
47616;DHT22;69146;52.266;7.000;2023-12-20T12:54:48;6.10;99.90
47616;DHT22;69146;52.266;7.000;2023-12-20T12:57:33;6.10;99.90
47616;DHT22;69146;52.266;7.000;2023-12-20T13:00:18;6.00;99.90
47616;DHT22;69146;52.266;7.000;2023-12-20T13:03:03;6.00;99.90
47616;DHT22;69146;52.266;7.000;2023-12-20T13:05:48;6.10;99.90
47616;DHT22;69146;52.266;7.000;2023-12-20T13:08:32;6.10;99.90
47616;DHT22;69146;52.266;7.000;2023-12-20T13:11:19;6.20;99.90
47616;DHT22;69146;52.266;7.000;2023-12-20T13:14:03;6.20;99.90
47616;DHT22;69146;52.266;7.000;2023-12-20T13:16:48;6.20;99.90
47616;DHT22;69146;52.266;7.000;2023-12-20T13:19:32;6.20;99.90
47616;DHT22;69146;52.266;7.000;2023-12-20T13:22:17;6.20;99.90
47616;DHT22;69146;52.266;7.000;2023-12-20T13:25:03;6.20;99.90
47616;DHT22;69146;52.266;7.000;2023-12-20T13:27:49;6.10;99.90
47616;DHT22;69146;52.266;7.000;2023-12-20T13:30:33;6.10;99.90
47616;DHT22;69146;52.266;7.000;2023-12-20T13:33:18;6.10;99.90
47616;DHT22;69146;52.266;7.000;2023-12-20T13:36:03;6.10;99.90
47616;DHT22;69146;52.266;7.000;2023-12-20T13:38:48;6.10;99.90
47616;DHT22;69146;52.266;7.000;2023-12-20T13:41:33;6.10;99.90
47616;DHT22;69146;52.266;7.000;2023-12-20T13:44:19;6.10;99.90
47616;DHT22;69146;52.266;7.000;2023-12-20T13:47:03;6.00;99.90
47616;DHT22;69146;52.266;7.000;2023-12-20T13:49:48;6.10;99.90
47616;DHT22;69146;52.266;7.000;2023-12-20T13:52:32;6.10;99.90
47616;DHT22;69146;52.266;7.000;2023-12-20T13:55:17;6.00;99.90
47616;DHT22;69146;52.266;7.000;2023-12-20T13:58:01;6.10;99.90
47616;DHT22;69146;52.266;7.000;2023-12-20T14:00:47;6.10;99.90
47616;DHT22;69146;52.266;7.000;2023-12-20T14:03:32;6.10;99.90
47616;DHT22;69146;52.266;7.000;2023-12-20T14:06:17;6.10;99.90
47616;DHT22;69146;52.266;7.000;2023-12-20T14:09:03;6.10;99.90
47616;DHT22;69146;52.266;7.000;2023-12-20T14:11:47;6.20;99.90
47616;DHT22;69146;52.266;7.000;2023-12-20T14:14:32;6.20;99.90
47616;DHT22;69146;52.266;7.000;2023-12-20T14:17:18;6.20;99.90
47616;DHT22;69146;52.266;7.000;2023-12-20T14:20:03;6.30;99.90
47616;DHT22;69146;52.266;7.000;2023-12-20T14:22:47;6.30;99.90
47616;DHT22;69146;52.266;7.000;2023-12-20T14:25:32;6.20;99.90
47616;DHT22;69146;52.266;7.000;2023-12-20T14:28:16;6.20;99.90
47616;DHT22;69146;52.266;7.000;2023-12-20T14:31:00;6.20;99.90
47616;DHT22;69146;52.266;7.000;2023-12-20T14:33:47;6.20;99.90
47616;DHT22;69146;52.266;7.000;2023-12-20T14:36:33;6.20;99.90
47616;DHT22;69146;52.266;7.000;2023-12-20T14:39:17;6.30;99.90
47616;DHT22;69146;52.266;7.000;2023-12-20T14:42:02;6.30;99.90
47616;DHT22;69146;52.266;7.000;2023-12-20T14:44:46;6.40;99.90
47616;DHT22;69146;52.266;7.000;2023-12-20T14:47:31;6.40;99.90
47616;DHT22;69146;52.266;7.000;2023-12-20T14:50:16;6.40;99.90
47616;DHT22;69146;52.266;7.000;2023-12-20T14:53:04;6.40;99.90
47616;DHT22;69146;52.266;7.000;2023-12-20T14:55:49;6.40;99.90
47616;DHT22;69146;52.266;7.000;2023-12-20T14:58:34;6.40;99.90
47616;DHT22;69146;52.266;7.000;2023-12-20T15:01:19;6.50;99.90
47616;DHT22;69146;52.266;7.000;2023-12-20T15:04:05;6.50;99.90
47616;DHT22;69146;52.266;7.000;2023-12-20T15:06:51;6.50;99.90
47616;DHT22;69146;52.266;7.000;2023-12-20T15:09:36;6.60;99.90
47616;DHT22;69146;52.266;7.000;2023-12-20T15:12:20;6.60;99.90
47616;DHT22;69146;52.266;7.000;2023-12-20T15:15:05;6.70;99.90
47616;DHT22;69146;52.266;7.000;2023-12-20T15:17:50;6.70;99.90
47616;DHT22;69146;52.266;7.000;2023-12-20T15:20:35;6.70;99.90
47616;DHT22;69146;52.266;7.000;2023-12-20T15:23:22;6.70;99.90
47616;DHT22;69146;52.266;7.000;2023-12-20T15:26:10;6.70;99.90
47616;DHT22;69146;52.266;7.000;2023-12-20T15:28:54;6.70;99.90
47616;DHT22;69146;52.266;7.000;2023-12-20T15:31:41;6.70;99.90
47616;DHT22;69146;52.266;7.000;2023-12-20T15:34:26;6.70;99.90
47616;DHT22;69146;52.266;7.000;2023-12-20T15:37:10;6.70;99.90
47616;DHT22;69146;52.266;7.000;2023-12-20T15:39:56;6.70;99.90
47616;DHT22;69146;52.266;7.000;2023-12-20T15:42:40;6.70;99.90
47616;DHT22;69146;52.266;7.000;2023-12-20T15:45:25;6.70;99.90
47616;DHT22;69146;52.266;7.000;2023-12-20T15:48:09;6.80;99.90
47616;DHT22;69146;52.266;7.000;2023-12-20T15:50:57;6.80;99.90
47616;DHT22;69146;52.266;7.000;2023-12-20T15:53:41;6.80;99.90
47616;DHT22;69146;52.266;7.000;2023-12-20T15:56:27;6.70;99.90
47616;DHT22;69146;52.266;7.000;2023-12-20T15:59:12;6.80;99.90
47616;DHT22;69146;52.266;7.000;2023-12-20T16:01:56;6.80;99.90
47616;DHT22;69146;52.266;7.000;2023-12-20T16:04:41;6.70;99.90
47616;DHT22;69146;52.266;7.000;2023-12-20T16:07:25;6.80;99.90
47616;DHT22;69146;52.266;7.000;2023-12-20T16:10:10;6.70;99.90
47616;DHT22;69146;52.266;7.000;2023-12-20T16:12:58;6.70;99.90
47616;DHT22;69146;52.266;7.000;2023-12-20T16:15:42;6.80;99.90
47616;DHT22;69146;52.266;7.000;2023-12-20T16:18:27;6.80;99.90
47616;DHT22;69146;52.266;7.000;2023-12-20T16:21:12;6.80;99.90
47616;DHT22;69146;52.266;7.000;2023-12-20T16:23:57;6.80;99.90
47616;DHT22;69146;52.266;7.000;2023-12-20T16:26:41;6.80;99.90
47616;DHT22;69146;52.266;7.000;2023-12-20T16:29:27;6.80;99.90
47616;DHT22;69146;52.266;7.000;2023-12-20T16:32:11;6.80;99.90
47616;DHT22;69146;52.266;7.000;2023-12-20T16:34:56;6.80;99.90
47616;DHT22;69146;52.266;7.000;2023-12-20T16:37:40;6.80;99.90
47616;DHT22;69146;52.266;7.000;2023-12-20T16:40:25;6.80;99.90
47616;DHT22;69146;52.266;7.000;2023-12-20T16:43:09;6.80;99.90
47616;DHT22;69146;52.266;7.000;2023-12-20T16:45:55;6.80;99.90
47616;DHT22;69146;52.266;7.000;2023-12-20T16:48:39;6.80;99.90
47616;DHT22;69146;52.266;7.000;2023-12-20T16:51:24;6.80;99.90
47616;DHT22;69146;52.266;7.000;2023-12-20T16:56:56;6.80;99.90
47616;DHT22;69146;52.266;7.000;2023-12-20T16:59:41;6.80;99.90
47616;DHT22;69146;52.266;7.000;2023-12-20T17:02:27;6.80;99.90
47616;DHT22;69146;52.266;7.000;2023-12-20T17:05:12;6.90;99.90
47616;DHT22;69146;52.266;7.000;2023-12-20T17:07:56;6.80;99.90
47616;DHT22;69146;52.266;7.000;2023-12-20T17:10:41;6.90;99.90
47616;DHT22;69146;52.266;7.000;2023-12-20T17:13:25;6.80;99.90
47616;DHT22;69146;52.266;7.000;2023-12-20T17:16:11;6.90;99.90
47616;DHT22;69146;52.266;7.000;2023-12-20T17:18:57;6.90;99.90
47616;DHT22;69146;52.266;7.000;2023-12-20T17:21:42;6.90;99.90
47616;DHT22;69146;52.266;7.000;2023-12-20T17:24:27;6.90;99.90
47616;DHT22;69146;52.266;7.000;2023-12-20T17:27:11;6.90;99.90
47616;DHT22;69146;52.266;7.000;2023-12-20T17:29:55;7.00;99.90
47616;DHT22;69146;52.266;7.000;2023-12-20T17:32:40;6.90;99.90
47616;DHT22;69146;52.266;7.000;2023-12-20T17:35:28;6.90;99.90
47616;DHT22;69146;52.266;7.000;2023-12-20T17:38:12;7.00;99.90
47616;DHT22;69146;52.266;7.000;2023-12-20T17:40:56;7.00;99.90
47616;DHT22;69146;52.266;7.000;2023-12-20T17:43:42;7.00;99.90
47616;DHT22;69146;52.266;7.000;2023-12-20T17:46:27;7.00;99.90